sensor_id;sensor_type;location;lat;lon;timestamp;temperature;humidity
3051;DHT22;1535;51.098;6.414;2022-07-22T00:00:03;16.80;99.90
3051;DHT22;1535;51.098;6.414;2022-07-22T00:02:30;16.80;99.90
3051;DHT22;1535;51.098;6.414;2022-07-22T00:04:57;16.70;99.90
3051;DHT22;1535;51.098;6.414;2022-07-22T00:07:24;16.70;99.90
3051;DHT22;1535;51.098;6.414;2022-07-22T00:09:51;16.70;99.90
3051;DHT22;1535;51.098;6.414;2022-07-22T00:12:20;16.70;99.90
3051;DHT22;1535;51.098;6.414;2022-07-22T00:14:47;16.70;99.90
3051;DHT22;1535;51.098;6.414;2022-07-22T00:17:14;16.70;99.90
3051;DHT22;1535;51.098;6.414;2022-07-22T00:19:41;16.70;99.90
3051;DHT22;1535;51.098;6.414;2022-07-22T00:22:09;16.70;99.90
3051;DHT22;1535;51.098;6.414;2022-07-22T00:24:36;16.70;99.90
3051;DHT22;1535;51.098;6.414;2022-07-22T00:27:03;16.70;99.90
3051;DHT22;1535;51.098;6.414;2022-07-22T00:29:33;16.60;99.90
3051;DHT22;1535;51.098;6.414;2022-07-22T00:32:01;16.70;99.90
3051;DHT22;1535;51.098;6.414;2022-07-22T00:34:27;16.70;99.90
3051;DHT22;1535;51.098;6.414;2022-07-22T00:36:55;16.70;99.90
3051;DHT22;1535;51.098;6.414;2022-07-22T00:39:24;16.70;99.90
3051;DHT22;1535;51.098;6.414;2022-07-22T00:41:51;16.70;99.90
3051;DHT22;1535;51.098;6.414;2022-07-22T00:44:18;16.60;99.90
3051;DHT22;1535;51.098;6.414;2022-07-22T00:46:47;16.60;99.90
3051;DHT22;1535;51.098;6.414;2022-07-22T00:49:15;16.60;99.90
3051;DHT22;1535;51.098;6.414;2022-07-22T00:51:42;16.60;99.90
3051;DHT22;1535;51.098;6.414;2022-07-22T00:54:10;16.60;99.90
3051;DHT22;1535;51.098;6.414;2022-07-22T00:56:39;16.60;99.90
3051;DHT22;1535;51.098;6.414;2022-07-22T00:59:07;16.70;99.90
3051;DHT22;1535;51.098;6.414;2022-07-22T01:01:35;16.70;99.90
3051;DHT22;1535;51.098;6.414;2022-07-22T01:04:04;16.70;99.90
3051;DHT22;1535;51.098;6.414;2022-07-22T01:06:32;16.60;99.90
3051;DHT22;1535;51.098;6.414;2022-07-22T01:09:00;16.70;99.90
3051;DHT22;1535;51.098;6.414;2022-07-22T01:11:27;16.60;99.90
3051;DHT22;1535;51.098;6.414;2022-07-22T01:13:55;16.70;99.90
3051;DHT22;1535;51.098;6.414;2022-07-22T01:16:22;16.60;99.90
3051;DHT22;1535;51.098;6.414;2022-07-22T01:18:49;16.60;99.90
3051;DHT22;1535;51.098;6.414;2022-07-22T01:21:17;16.70;99.90
3051;DHT22;1535;51.098;6.414;2022-07-22T01:23:44;16.70;99.90
3051;DHT22;1535;51.098;6.414;2022-07-22T01:26:13;16.80;99.90
3051;DHT22;1535;51.098;6.414;2022-07-22T01:28:40;16.80;99.90
3051;DHT22;1535;51.098;6.414;2022-07-22T01:31:07;16.80;99.90
3051;DHT22;1535;51.098;6.414;2022-07-22T01:33:35;16.70;99.90
3051;DHT22;1535;51.098;6.414;2022-07-22T01:36:03;16.70;99.90
3051;DHT22;1535;51.098;6.414;2022-07-22T01:38:31;16.70;99.90
3051;DHT22;1535;51.098;6.414;2022-07-22T01:40:58;16.70;99.90
3051;DHT22;1535;51.098;6.414;2022-07-22T01:43:25;16.70;99.90
3051;DHT22;1535;51.098;6.414;2022-07-22T01:45:53;16.70;99.90
3051;DHT22;1535;51.098;6.414;2022-07-22T01:48:21;16.70;99.90
3051;DHT22;1535;51.098;6.414;2022-07-22T01:50:49;16.70;99.90
3051;DHT22;1535;51.098;6.414;2022-07-22T01:53:16;16.70;99.90
3051;DHT22;1535;51.098;6.414;2022-07-22T01:55:46;16.70;99.90
3051;DHT22;1535;51.098;6.414;2022-07-22T01:58:13;16.70;99.90
3051;DHT22;1535;51.098;6.414;2022-07-22T02:03:22;16.60;99.90
3051;DHT22;1535;51.098;6.414;2022-07-22T02:05:50;16.60;99.90
3051;DHT22;1535;51.098;6.414;2022-07-22T02:08:16;16.70;99.90
3051;DHT22;1535;51.098;6.414;2022-07-22T02:10:45;16.70;99.90
3051;DHT22;1535;51.098;6.414;2022-07-22T02:13:12;16.60;99.90
3051;DHT22;1535;51.098;6.414;2022-07-22T02:15:40;16.60;99.90
3051;DHT22;1535;51.098;6.414;2022-07-22T02:18:12;16.60;99.90
3051;DHT22;1535;51.098;6.414;2022-07-22T02:20:54;16.60;99.90
3051;DHT22;1535;51.098;6.414;2022-07-22T02:23:21;16.70;99.90
3051;DHT22;1535;51.098;6.414;2022-07-22T02:25:50;16.60;99.90
3051;DHT22;1535;51.098;6.414;2022-07-22T02:28:17;16.60;99.90
3051;DHT22;1535;51.098;6.414;2022-07-22T02:30:43;16.60;99.90
3051;DHT22;1535;51.098;6.414;2022-07-22T02:33:10;16.70;99.90
3051;DHT22;1535;51.098;6.414;2022-07-22T02:35:37;16.70;99.90
3051;DHT22;1535;51.098;6.414;2022-07-22T02:38:05;16.70;99.90
3051;DHT22;1535;51.098;6.414;2022-07-22T02:40:31;16.60;99.90
3051;DHT22;1535;51.098;6.414;2022-07-22T02:43:02;16.60;99.90
3051;DHT22;1535;51.098;6.414;2022-07-22T02:45:31;16.60;99.90
3051;DHT22;1535;51.098;6.414;2022-07-22T02:47:59;16.60;99.90
3051;DHT22;1535;51.098;6.414;2022-07-22T02:50:27;16.60;99.90
3051;DHT22;1535;51.098;6.414;2022-07-22T02:52:54;16.60;99.90
3051;DHT22;1535;51.098;6.414;2022-07-22T02:55:21;16.60;99.90
3051;DHT22;1535;51.098;6.414;2022-07-22T02:57:49;16.60;99.90
3051;DHT22;1535;51.098;6.414;2022-07-22T03:00:18;16.70;99.90
3051;DHT22;1535;51.098;6.414;2022-07-22T03:02:46;16.70;99.90
3051;DHT22;1535;51.098;6.414;2022-07-22T03:05:13;16.70;99.90
3051;DHT22;1535;51.098;6.414;2022-07-22T03:07:40;16.70;99.90
3051;DHT22;1535;51.098;6.414;2022-07-22T03:10:08;16.80;99.90
3051;DHT22;1535;51.098;6.414;2022-07-22T03:12:35;16.80;99.90
3051;DHT22;1535;51.098;6.414;2022-07-22T03:15:03;16.80;99.90
3051;DHT22;1535;51.098;6.414;2022-07-22T03:17:35;16.70;99.90
3051;DHT22;1535;51.098;6.414;2022-07-22T03:20:03;16.70;99.90
3051;DHT22;1535;51.098;6.414;2022-07-22T03:22:31;16.60;99.90
3051;DHT22;1535;51.098;6.414;2022-07-22T03:24:58;16.60;99.90
3051;DHT22;1535;51.098;6.414;2022-07-22T03:27:25;16.60;99.90
3051;DHT22;1535;51.098;6.414;2022-07-22T03:29:52;16.60;99.90
3051;DHT22;1535;51.098;6.414;2022-07-22T03:32:20;16.60;99.90
3051;DHT22;1535;51.098;6.414;2022-07-22T03:34:50;16.60;99.90
3051;DHT22;1535;51.098;6.414;2022-07-22T03:37:18;16.60;99.90
3051;DHT22;1535;51.098;6.414;2022-07-22T03:39:44;16.60;99.90
3051;DHT22;1535;51.098;6.414;2022-07-22T03:42:11;16.60;99.90
3051;DHT22;1535;51.098;6.414;2022-07-22T03:44:38;16.60;99.90
3051;DHT22;1535;51.098;6.414;2022-07-22T03:47:05;16.60;99.90
3051;DHT22;1535;51.098;6.414;2022-07-22T03:49:32;16.70;99.90
3051;DHT22;1535;51.098;6.414;2022-07-22T03:52:01;16.70;99.90
3051;DHT22;1535;51.098;6.414;2022-07-22T03:54:28;16.70;99.90
3051;DHT22;1535;51.098;6.414;2022-07-22T03:56:55;16.70;99.90
3051;DHT22;1535;51.098;6.414;2022-07-22T03:59:22;16.70;99.90
3051;DHT22;1535;51.098;6.414;2022-07-22T04:01:48;16.60;99.90
3051;DHT22;1535;51.098;6.414;2022-07-22T04:04:15;16.70;99.90
3051;DHT22;1535;51.098;6.414;2022-07-22T04:06:42;16.60;99.90
3051;DHT22;1535;51.098;6.414;2022-07-22T04:09:11;16.60;99.90
3051;DHT22;1535;51.098;6.414;2022-07-22T04:11:38;16.60;99.90
3051;DHT22;1535;51.098;6.414;2022-07-22T04:14:05;16.60;99.90
3051;DHT22;1535;51.098;6.414;2022-07-22T04:16:32;16.60;99.90
3051;DHT22;1535;51.098;6.414;2022-07-22T04:19:00;16.60;99.90
3051;DHT22;1535;51.098;6.414;2022-07-22T04:21:27;16.60;99.90
3051;DHT22;1535;51.098;6.414;2022-07-22T04:23:54;16.70;99.90
3051;DHT22;1535;51.098;6.414;2022-07-22T04:26:22;16.60;99.90
3051;DHT22;1535;51.098;6.414;2022-07-22T04:28:49;16.50;99.90
3051;DHT22;1535;51.098;6.414;2022-07-22T04:31:16;16.60;99.90
3051;DHT22;1535;51.098;6.414;2022-07-22T04:33:43;16.70;99.90
3051;DHT22;1535;51.098;6.414;2022-07-22T04:36:10;16.60;99.90
3051;DHT22;1535;51.098;6.414;2022-07-22T04:38:36;16.60;99.90
3051;DHT22;1535;51.098;6.414;2022-07-22T04:41:03;16.60;99.90
3051;DHT22;1535;51.098;6.414;2022-07-22T04:43:32;16.60;99.90
3051;DHT22;1535;51.098;6.414;2022-07-22T04:45:59;16.60;99.90
3051;DHT22;1535;51.098;6.414;2022-07-22T04:48:26;16.50;99.90
3051;DHT22;1535;51.098;6.414;2022-07-22T04:50:53;16.50;99.90
3051;DHT22;1535;51.098;6.414;2022-07-22T04:53:20;16.50;99.90
3051;DHT22;1535;51.098;6.414;2022-07-22T04:55:47;16.40;99.90
3051;DHT22;1535;51.098;6.414;2022-07-22T04:58:14;16.40;99.90
3051;DHT22;1535;51.098;6.414;2022-07-22T05:00:42;16.40;99.90
3051;DHT22;1535;51.098;6.414;2022-07-22T05:03:09;16.50;99.90
3051;DHT22;1535;51.098;6.414;2022-07-22T05:05:36;16.50;99.90
3051;DHT22;1535;51.098;6.414;2022-07-22T05:08:04;16.50;99.90
3051;DHT22;1535;51.098;6.414;2022-07-22T05:10:31;16.40;99.90
3051;DHT22;1535;51.098;6.414;2022-07-22T05:12:58;16.40;99.90
3051;DHT22;1535;51.098;6.414;2022-07-22T05:15:25;16.40;99.90
3051;DHT22;1535;51.098;6.414;2022-07-22T05:17:53;16.40;99.90
3051;DHT22;1535;51.098;6.414;2022-07-22T05:20:20;16.50;99.90
3051;DHT22;1535;51.098;6.414;2022-07-22T05:22:47;16.50;99.90
3051;DHT22;1535;51.098;6.414;2022-07-22T05:25:14;16.70;99.90
3051;DHT22;1535;51.098;6.414;2022-07-22T05:27:50;16.80;99.90
3051;DHT22;1535;51.098;6.414;2022-07-22T05:30:17;16.90;99.90
3051;DHT22;1535;51.098;6.414;2022-07-22T05:32:45;16.80;99.90
3051;DHT22;1535;51.098;6.414;2022-07-22T05:35:14;16.70;99.90
3051;DHT22;1535;51.098;6.414;2022-07-22T05:37:41;16.60;99.90
3051;DHT22;1535;51.098;6.414;2022-07-22T05:40:09;16.50;99.90
3051;DHT22;1535;51.098;6.414;2022-07-22T05:42:36;16.50;99.90
3051;DHT22;1535;51.098;6.414;2022-07-22T05:45:03;16.50;99.90
3051;DHT22;1535;51.098;6.414;2022-07-22T05:47:31;16.50;99.90
3051;DHT22;1535;51.098;6.414;2022-07-22T05:49:57;16.60;99.90
3051;DHT22;1535;51.098;6.414;2022-07-22T05:52:25;16.50;99.90
3051;DHT22;1535;51.098;6.414;2022-07-22T05:54:53;16.60;99.90
3051;DHT22;1535;51.098;6.414;2022-07-22T05:57:20;16.60;99.90
3051;DHT22;1535;51.098;6.414;2022-07-22T05:59:47;16.70;99.90
3051;DHT22;1535;51.098;6.414;2022-07-22T06:02:14;16.80;99.90
3051;DHT22;1535;51.098;6.414;2022-07-22T06:04:41;16.80;99.90
3051;DHT22;1535;51.098;6.414;2022-07-22T06:07:07;16.80;99.90
3051;DHT22;1535;51.098;6.414;2022-07-22T06:09:36;17.00;99.90
3051;DHT22;1535;51.098;6.414;2022-07-22T06:12:04;17.00;99.90
3051;DHT22;1535;51.098;6.414;2022-07-22T06:14:31;17.10;99.90
3051;DHT22;1535;51.098;6.414;2022-07-22T06:16:58;17.00;99.90
3051;DHT22;1535;51.098;6.414;2022-07-22T06:19:24;17.00;99.90
3051;DHT22;1535;51.098;6.414;2022-07-22T06:21:51;17.20;99.90
3051;DHT22;1535;51.098;6.414;2022-07-22T06:24:18;17.40;99.90
3051;DHT22;1535;51.098;6.414;2022-07-22T06:26:46;17.50;99.90
3051;DHT22;1535;51.098;6.414;2022-07-22T06:29:14;17.80;99.90
3051;DHT22;1535;51.098;6.414;2022-07-22T06:31:41;17.80;99.90
3051;DHT22;1535;51.098;6.414;2022-07-22T06:34:08;17.60;99.90
3051;DHT22;1535;51.098;6.414;2022-07-22T06:36:34;17.60;99.90
3051;DHT22;1535;51.098;6.414;2022-07-22T06:39:02;17.60;99.90
3051;DHT22;1535;51.098;6.414;2022-07-22T06:41:28;17.80;99.90
3051;DHT22;1535;51.098;6.414;2022-07-22T06:43:57;17.90;99.90
3051;DHT22;1535;51.098;6.414;2022-07-22T06:46:24;18.10;99.90
3051;DHT22;1535;51.098;6.414;2022-07-22T06:48:50;18.10;99.90
3051;DHT22;1535;51.098;6.414;2022-07-22T06:51:18;18.00;99.90
3051;DHT22;1535;51.098;6.414;2022-07-22T06:53:45;18.20;99.90
3051;DHT22;1535;51.098;6.414;2022-07-22T06:56:12;18.20;99.90
3051;DHT22;1535;51.098;6.414;2022-07-22T06:58:39;18.50;99.90
3051;DHT22;1535;51.098;6.414;2022-07-22T07:01:07;18.80;99.90
3051;DHT22;1535;51.098;6.414;2022-07-22T07:03:34;18.70;99.90
3051;DHT22;1535;51.098;6.414;2022-07-22T07:06:02;18.90;99.90
3051;DHT22;1535;51.098;6.414;2022-07-22T07:08:29;19.00;99.90
3051;DHT22;1535;51.098;6.414;2022-07-22T07:10:56;19.20;99.90
3051;DHT22;1535;51.098;6.414;2022-07-22T07:13:23;19.40;99.90
3051;DHT22;1535;51.098;6.414;2022-07-22T07:15:50;19.40;99.90
3051;DHT22;1535;51.098;6.414;2022-07-22T07:18:18;19.10;99.90
3051;DHT22;1535;51.098;6.414;2022-07-22T07:20:45;19.20;99.90
3051;DHT22;1535;51.098;6.414;2022-07-22T07:23:11;19.30;99.90
3051;DHT22;1535;51.098;6.414;2022-07-22T07:25:39;19.30;99.90
3051;DHT22;1535;51.098;6.414;2022-07-22T07:28:06;19.50;99.90
3051;DHT22;1535;51.098;6.414;2022-07-22T07:30:33;19.80;99.90
3051;DHT22;1535;51.098;6.414;2022-07-22T07:33:00;19.90;99.90
3051;DHT22;1535;51.098;6.414;2022-07-22T07:35:29;20.10;99.90
3051;DHT22;1535;51.098;6.414;2022-07-22T07:37:56;20.20;99.90
3051;DHT22;1535;51.098;6.414;2022-07-22T07:40:23;20.00;99.90
3051;DHT22;1535;51.098;6.414;2022-07-22T07:42:50;20.20;99.90
3051;DHT22;1535;51.098;6.414;2022-07-22T07:45:17;20.40;99.90
3051;DHT22;1535;51.098;6.414;2022-07-22T07:47:44;20.50;99.90
3051;DHT22;1535;51.098;6.414;2022-07-22T07:50:11;20.40;99.90
3051;DHT22;1535;51.098;6.414;2022-07-22T07:52:40;20.20;99.90
3051;DHT22;1535;51.098;6.414;2022-07-22T07:55:08;20.40;99.90
3051;DHT22;1535;51.098;6.414;2022-07-22T07:57:36;20.50;99.90
3051;DHT22;1535;51.098;6.414;2022-07-22T08:00:05;20.50;99.90
3051;DHT22;1535;51.098;6.414;2022-07-22T08:02:33;20.60;99.90
3051;DHT22;1535;51.098;6.414;2022-07-22T08:04:59;20.60;99.90
3051;DHT22;1535;51.098;6.414;2022-07-22T08:07:27;20.80;99.90
3051;DHT22;1535;51.098;6.414;2022-07-22T08:09:55;20.90;99.90
3051;DHT22;1535;51.098;6.414;2022-07-22T08:12:22;21.20;99.90
3051;DHT22;1535;51.098;6.414;2022-07-22T08:14:49;21.20;99.90
3051;DHT22;1535;51.098;6.414;2022-07-22T08:17:16;21.20;99.90
3051;DHT22;1535;51.098;6.414;2022-07-22T08:19:43;21.50;99.90
3051;DHT22;1535;51.098;6.414;2022-07-22T08:22:10;21.30;99.90
3051;DHT22;1535;51.098;6.414;2022-07-22T08:24:37;21.60;99.90
3051;DHT22;1535;51.098;6.414;2022-07-22T08:27:05;21.90;99.90
3051;DHT22;1535;51.098;6.414;2022-07-22T08:29:32;22.10;99.90
3051;DHT22;1535;51.098;6.414;2022-07-22T08:31:59;22.10;99.90
3051;DHT22;1535;51.098;6.414;2022-07-22T08:34:26;22.00;99.90
3051;DHT22;1535;51.098;6.414;2022-07-22T08:36:53;22.00;99.90
3051;DHT22;1535;51.098;6.414;2022-07-22T08:39:19;22.00;99.90
3051;DHT22;1535;51.098;6.414;2022-07-22T08:41:46;22.10;99.90
3051;DHT22;1535;51.098;6.414;2022-07-22T08:44:15;22.20;99.90
3051;DHT22;1535;51.098;6.414;2022-07-22T08:46:44;22.50;99.90
3051;DHT22;1535;51.098;6.414;2022-07-22T08:49:13;22.60;99.90
3051;DHT22;1535;51.098;6.414;2022-07-22T08:51:40;22.50;99.90
3051;DHT22;1535;51.098;6.414;2022-07-22T08:54:07;22.20;99.90
3051;DHT22;1535;51.098;6.414;2022-07-22T08:56:34;22.90;99.90
3051;DHT22;1535;51.098;6.414;2022-07-22T08:59:03;23.30;99.90
3051;DHT22;1535;51.098;6.414;2022-07-22T09:01:31;23.50;99.90
3051;DHT22;1535;51.098;6.414;2022-07-22T09:03:58;23.80;99.90
3051;DHT22;1535;51.098;6.414;2022-07-22T09:06:27;24.00;99.90
3051;DHT22;1535;51.098;6.414;2022-07-22T09:09:00;23.40;99.90
3051;DHT22;1535;51.098;6.414;2022-07-22T09:11:28;23.70;99.90
3051;DHT22;1535;51.098;6.414;2022-07-22T09:13:56;24.20;99.90
3051;DHT22;1535;51.098;6.414;2022-07-22T09:16:41;24.30;99.90
3051;DHT22;1535;51.098;6.414;2022-07-22T09:19:08;24.20;99.90
3051;DHT22;1535;51.098;6.414;2022-07-22T09:21:37;24.10;99.90
3051;DHT22;1535;51.098;6.414;2022-07-22T09:24:04;23.90;99.90
3051;DHT22;1535;51.098;6.414;2022-07-22T09:26:33;24.10;99.90
3051;DHT22;1535;51.098;6.414;2022-07-22T09:29:00;24.50;99.90
3051;DHT22;1535;51.098;6.414;2022-07-22T09:31:29;24.80;99.90
3051;DHT22;1535;51.098;6.414;2022-07-22T09:33:58;24.70;99.90
3051;DHT22;1535;51.098;6.414;2022-07-22T09:36:25;25.10;99.90
3051;DHT22;1535;51.098;6.414;2022-07-22T09:38:52;25.30;99.90
3051;DHT22;1535;51.098;6.414;2022-07-22T09:41:19;25.20;99.90
3051;DHT22;1535;51.098;6.414;2022-07-22T09:43:47;25.00;99.90
3051;DHT22;1535;51.098;6.414;2022-07-22T09:46:15;24.70;99.90
3051;DHT22;1535;51.098;6.414;2022-07-22T09:48:42;24.60;99.90
3051;DHT22;1535;51.098;6.414;2022-07-22T09:51:10;24.20;99.90
3051;DHT22;1535;51.098;6.414;2022-07-22T09:53:38;24.20;99.90
3051;DHT22;1535;51.098;6.414;2022-07-22T09:56:06;24.70;99.90
3051;DHT22;1535;51.098;6.414;2022-07-22T09:58:33;24.80;99.90
3051;DHT22;1535;51.098;6.414;2022-07-22T10:01:04;25.00;99.90
3051;DHT22;1535;51.098;6.414;2022-07-22T10:03:33;24.60;99.90
3051;DHT22;1535;51.098;6.414;2022-07-22T10:06:03;24.10;99.90
3051;DHT22;1535;51.098;6.414;2022-07-22T10:08:33;24.20;99.90
3051;DHT22;1535;51.098;6.414;2022-07-22T10:11:01;24.00;99.90
3051;DHT22;1535;51.098;6.414;2022-07-22T10:13:29;24.20;99.90
3051;DHT22;1535;51.098;6.414;2022-07-22T10:15:57;24.50;99.90
3051;DHT22;1535;51.098;6.414;2022-07-22T10:18:25;24.80;99.90
3051;DHT22;1535;51.098;6.414;2022-07-22T10:21:01;25.00;99.90
3051;DHT22;1535;51.098;6.414;2022-07-22T10:23:28;25.00;99.90
3051;DHT22;1535;51.098;6.414;2022-07-22T10:25:58;24.70;99.90
3051;DHT22;1535;51.098;6.414;2022-07-22T10:28:26;25.10;99.90
3051;DHT22;1535;51.098;6.414;2022-07-22T10:31:07;25.50;99.90
3051;DHT22;1535;51.098;6.414;2022-07-22T10:33:43;25.40;99.90
3051;DHT22;1535;51.098;6.414;2022-07-22T10:36:11;25.50;99.90
3051;DHT22;1535;51.098;6.414;2022-07-22T10:41:33;25.70;99.90
3051;DHT22;1535;51.098;6.414;2022-07-22T10:44:01;26.30;99.90
3051;DHT22;1535;51.098;6.414;2022-07-22T10:46:49;26.50;99.90
3051;DHT22;1535;51.098;6.414;2022-07-22T10:49:19;26.90;99.90
3051;DHT22;1535;51.098;6.414;2022-07-22T10:52:08;27.50;99.90
3051;DHT22;1535;51.098;6.414;2022-07-22T10:57:37;28.90;99.90
3051;DHT22;1535;51.098;6.414;2022-07-22T11:00:05;29.50;99.90
3051;DHT22;1535;51.098;6.414;2022-07-22T11:02:33;30.60;98.10
3051;DHT22;1535;51.098;6.414;2022-07-22T11:05:00;30.40;96.70
3051;DHT22;1535;51.098;6.414;2022-07-22T11:07:27;29.50;96.70
3051;DHT22;1535;51.098;6.414;2022-07-22T11:10:08;29.40;97.50
3051;DHT22;1535;51.098;6.414;2022-07-22T11:12:37;29.20;97.80
3051;DHT22;1535;51.098;6.414;2022-07-22T11:15:07;28.60;98.20
3051;DHT22;1535;51.098;6.414;2022-07-22T11:17:34;27.80;98.50
3051;DHT22;1535;51.098;6.414;2022-07-22T11:20:01;27.40;99.20
3051;DHT22;1535;51.098;6.414;2022-07-22T11:22:29;27.20;99.90
3051;DHT22;1535;51.098;6.414;2022-07-22T11:24:57;27.60;99.90
3051;DHT22;1535;51.098;6.414;2022-07-22T11:27:27;28.30;98.90
3051;DHT22;1535;51.098;6.414;2022-07-22T11:29:56;29.70;98.60
3051;DHT22;1535;51.098;6.414;2022-07-22T11:32:24;30.70;95.50
3051;DHT22;1535;51.098;6.414;2022-07-22T11:34:53;30.70;95.10
3051;DHT22;1535;51.098;6.414;2022-07-22T11:37:21;31.80;91.90
3051;DHT22;1535;51.098;6.414;2022-07-22T11:39:49;32.60;89.70
3051;DHT22;1535;51.098;6.414;2022-07-22T11:42:16;33.40;84.70
3051;DHT22;1535;51.098;6.414;2022-07-22T11:44:43;33.50;78.10
3051;DHT22;1535;51.098;6.414;2022-07-22T11:47:12;32.50;77.70
3051;DHT22;1535;51.098;6.414;2022-07-22T11:49:39;31.80;77.70
3051;DHT22;1535;51.098;6.414;2022-07-22T11:52:08;30.90;78.30
3051;DHT22;1535;51.098;6.414;2022-07-22T11:54:37;30.90;80.70
3051;DHT22;1535;51.098;6.414;2022-07-22T11:57:05;30.80;81.60
3051;DHT22;1535;51.098;6.414;2022-07-22T11:59:33;30.70;82.10
3051;DHT22;1535;51.098;6.414;2022-07-22T12:02:01;30.70;83.60
3051;DHT22;1535;51.098;6.414;2022-07-22T12:04:30;29.80;84.10
3051;DHT22;1535;51.098;6.414;2022-07-22T12:06:59;29.90;85.40
3051;DHT22;1535;51.098;6.414;2022-07-22T12:09:31;29.90;83.40
3051;DHT22;1535;51.098;6.414;2022-07-22T12:11:59;29.40;85.20
3051;DHT22;1535;51.098;6.414;2022-07-22T12:14:28;30.10;87.00
3051;DHT22;1535;51.098;6.414;2022-07-22T12:16:57;31.00;84.00
3051;DHT22;1535;51.098;6.414;2022-07-22T12:19:24;31.30;79.80
3051;DHT22;1535;51.098;6.414;2022-07-22T12:21:57;30.90;77.40
3051;DHT22;1535;51.098;6.414;2022-07-22T12:24:30;31.10;78.90
3051;DHT22;1535;51.098;6.414;2022-07-22T12:26:58;31.60;77.30
3051;DHT22;1535;51.098;6.414;2022-07-22T12:29:26;31.90;76.10
3051;DHT22;1535;51.098;6.414;2022-07-22T12:31:55;32.60;73.90
3051;DHT22;1535;51.098;6.414;2022-07-22T12:34:30;33.00;71.20
3051;DHT22;1535;51.098;6.414;2022-07-22T12:36:59;33.30;68.60
3051;DHT22;1535;51.098;6.414;2022-07-22T12:39:28;34.00;70.60
3051;DHT22;1535;51.098;6.414;2022-07-22T12:41:55;34.30;68.30
3051;DHT22;1535;51.098;6.414;2022-07-22T12:44:24;33.60;66.80
3051;DHT22;1535;51.098;6.414;2022-07-22T12:46:53;32.80;67.90
3051;DHT22;1535;51.098;6.414;2022-07-22T12:49:22;32.30;69.70
3051;DHT22;1535;51.098;6.414;2022-07-22T12:52:07;31.90;68.60
3051;DHT22;1535;51.098;6.414;2022-07-22T12:54:35;31.90;70.30
3051;DHT22;1535;51.098;6.414;2022-07-22T12:57:03;32.10;68.90
3051;DHT22;1535;51.098;6.414;2022-07-22T12:59:31;32.60;67.20
3051;DHT22;1535;51.098;6.414;2022-07-22T13:01:58;31.70;67.20
3051;DHT22;1535;51.098;6.414;2022-07-22T13:04:25;31.90;69.20
3051;DHT22;1535;51.098;6.414;2022-07-22T13:06:52;32.60;69.00
3051;DHT22;1535;51.098;6.414;2022-07-22T13:09:20;33.50;66.30
3051;DHT22;1535;51.098;6.414;2022-07-22T13:11:47;33.70;68.40
3051;DHT22;1535;51.098;6.414;2022-07-22T13:14:15;32.80;67.00
3051;DHT22;1535;51.098;6.414;2022-07-22T13:16:41;32.20;66.90
3051;DHT22;1535;51.098;6.414;2022-07-22T13:19:08;31.60;68.30
3051;DHT22;1535;51.098;6.414;2022-07-22T13:21:35;31.30;68.60
3051;DHT22;1535;51.098;6.414;2022-07-22T13:24:02;30.80;70.20
3051;DHT22;1535;51.098;6.414;2022-07-22T13:26:31;30.90;69.70
3051;DHT22;1535;51.098;6.414;2022-07-22T13:28:57;31.30;68.10
3051;DHT22;1535;51.098;6.414;2022-07-22T13:31:24;31.20;68.10
3051;DHT22;1535;51.098;6.414;2022-07-22T13:33:52;31.00;68.70
3051;DHT22;1535;51.098;6.414;2022-07-22T13:36:19;32.20;67.40
3051;DHT22;1535;51.098;6.414;2022-07-22T13:38:49;32.20;64.80
3051;DHT22;1535;51.098;6.414;2022-07-22T13:41:16;31.90;64.80
3051;DHT22;1535;51.098;6.414;2022-07-22T13:43:45;32.40;62.30
3051;DHT22;1535;51.098;6.414;2022-07-22T13:46:14;33.20;64.30
3051;DHT22;1535;51.098;6.414;2022-07-22T13:48:41;33.80;62.70
3051;DHT22;1535;51.098;6.414;2022-07-22T13:51:09;34.20;59.70
3051;DHT22;1535;51.098;6.414;2022-07-22T13:53:36;33.40;60.20
3051;DHT22;1535;51.098;6.414;2022-07-22T13:56:03;33.60;59.70
3051;DHT22;1535;51.098;6.414;2022-07-22T13:58:31;34.00;60.00
3051;DHT22;1535;51.098;6.414;2022-07-22T14:01:00;32.90;60.90
3051;DHT22;1535;51.098;6.414;2022-07-22T14:03:27;32.30;62.70
3051;DHT22;1535;51.098;6.414;2022-07-22T14:05:54;32.40;63.80
3051;DHT22;1535;51.098;6.414;2022-07-22T14:08:22;32.20;62.40
3051;DHT22;1535;51.098;6.414;2022-07-22T14:10:49;32.30;64.40
3051;DHT22;1535;51.098;6.414;2022-07-22T14:13:16;32.10;61.50
3051;DHT22;1535;51.098;6.414;2022-07-22T14:15:43;32.60;60.80
3051;DHT22;1535;51.098;6.414;2022-07-22T14:18:11;32.90;60.20
3051;DHT22;1535;51.098;6.414;2022-07-22T14:20:38;33.50;59.30
3051;DHT22;1535;51.098;6.414;2022-07-22T14:23:06;32.90;58.70
3051;DHT22;1535;51.098;6.414;2022-07-22T14:25:35;32.90;59.60
3051;DHT22;1535;51.098;6.414;2022-07-22T14:28:02;32.80;59.80
3051;DHT22;1535;51.098;6.414;2022-07-22T14:30:29;33.10;59.90
3051;DHT22;1535;51.098;6.414;2022-07-22T14:32:56;33.60;60.50
3051;DHT22;1535;51.098;6.414;2022-07-22T14:35:25;33.10;59.40
3051;DHT22;1535;51.098;6.414;2022-07-22T14:37:52;33.00;60.30
3051;DHT22;1535;51.098;6.414;2022-07-22T14:40:19;32.90;60.20
3051;DHT22;1535;51.098;6.414;2022-07-22T14:42:46;32.50;59.60
3051;DHT22;1535;51.098;6.414;2022-07-22T14:45:14;32.90;59.40
3051;DHT22;1535;51.098;6.414;2022-07-22T14:47:41;33.30;61.00
3051;DHT22;1535;51.098;6.414;2022-07-22T14:50:08;32.70;59.60
3051;DHT22;1535;51.098;6.414;2022-07-22T14:52:36;32.20;60.70
3051;DHT22;1535;51.098;6.414;2022-07-22T14:55:03;31.40;61.20
3051;DHT22;1535;51.098;6.414;2022-07-22T14:57:30;31.10;63.00
3051;DHT22;1535;51.098;6.414;2022-07-22T14:59:57;30.80;64.40
3051;DHT22;1535;51.098;6.414;2022-07-22T15:02:24;30.20;64.90
3051;DHT22;1535;51.098;6.414;2022-07-22T15:04:51;29.60;65.50
3051;DHT22;1535;51.098;6.414;2022-07-22T15:07:18;29.10;67.50
3051;DHT22;1535;51.098;6.414;2022-07-22T15:09:46;29.10;69.90
3051;DHT22;1535;51.098;6.414;2022-07-22T15:12:13;28.90;69.90
3051;DHT22;1535;51.098;6.414;2022-07-22T15:14:40;28.90;69.20
3051;DHT22;1535;51.098;6.414;2022-07-22T15:17:07;28.80;69.60
3051;DHT22;1535;51.098;6.414;2022-07-22T15:19:34;28.90;69.90
3051;DHT22;1535;51.098;6.414;2022-07-22T15:22:01;28.70;72.40
3051;DHT22;1535;51.098;6.414;2022-07-22T15:24:27;28.60;72.10
3051;DHT22;1535;51.098;6.414;2022-07-22T15:26:56;28.60;72.90
3051;DHT22;1535;51.098;6.414;2022-07-22T15:29:23;28.80;72.00
3051;DHT22;1535;51.098;6.414;2022-07-22T15:31:50;28.60;72.70
3051;DHT22;1535;51.098;6.414;2022-07-22T15:34:17;28.40;73.80
3051;DHT22;1535;51.098;6.414;2022-07-22T15:36:44;28.30;74.00
3051;DHT22;1535;51.098;6.414;2022-07-22T15:39:11;28.70;73.40
3051;DHT22;1535;51.098;6.414;2022-07-22T15:41:39;29.30;75.00
3051;DHT22;1535;51.098;6.414;2022-07-22T15:44:08;29.70;71.30
3051;DHT22;1535;51.098;6.414;2022-07-22T15:46:35;29.60;71.10
3051;DHT22;1535;51.098;6.414;2022-07-22T15:49:02;29.80;70.70
3051;DHT22;1535;51.098;6.414;2022-07-22T15:51:29;30.20;69.00
3051;DHT22;1535;51.098;6.414;2022-07-22T15:53:57;30.10;69.00
3051;DHT22;1535;51.098;6.414;2022-07-22T15:56:24;30.80;68.30
3051;DHT22;1535;51.098;6.414;2022-07-22T15:58:50;31.50;66.80
3051;DHT22;1535;51.098;6.414;2022-07-22T16:01:37;31.20;65.30
3051;DHT22;1535;51.098;6.414;2022-07-22T16:04:04;31.80;65.40
3051;DHT22;1535;51.098;6.414;2022-07-22T16:06:31;32.10;64.60
3051;DHT22;1535;51.098;6.414;2022-07-22T16:08:57;32.20;63.00
3051;DHT22;1535;51.098;6.414;2022-07-22T16:11:24;32.60;62.80
3051;DHT22;1535;51.098;6.414;2022-07-22T16:13:51;32.60;63.00